sensor_id;sensor_type;location;lat;lon;timestamp;P1;durP1;ratioP1;P2;durP2;ratioP2
58366;SDS011;57745;42.524;12.052;2023-06-04T00:00:41;10.93;;;9.25;;
58366;SDS011;57745;42.524;12.052;2023-06-04T00:03:07;12.70;;;9.02;;
58366;SDS011;57745;42.524;12.052;2023-06-04T00:05:32;11.75;;;9.80;;
58366;SDS011;57745;42.524;12.052;2023-06-04T00:07:58;11.18;;;9.45;;
58366;SDS011;57745;42.524;12.052;2023-06-04T00:10:23;9.73;;;8.52;;
58366;SDS011;57745;42.524;12.052;2023-06-04T00:12:49;11.40;;;9.00;;
58366;SDS011;57745;42.524;12.052;2023-06-04T00:15:14;10.35;;;9.27;;
58366;SDS011;57745;42.524;12.052;2023-06-04T00:17:41;10.32;;;8.93;;
58366;SDS011;57745;42.524;12.052;2023-06-04T00:20:07;11.05;;;9.20;;
58366;SDS011;57745;42.524;12.052;2023-06-04T00:22:33;11.65;;;8.90;;
58366;SDS011;57745;42.524;12.052;2023-06-04T00:24:59;11.43;;;9.40;;
58366;SDS011;57745;42.524;12.052;2023-06-04T00:27:24;13.68;;;9.15;;
58366;SDS011;57745;42.524;12.052;2023-06-04T00:29:49;10.63;;;8.82;;
58366;SDS011;57745;42.524;12.052;2023-06-04T00:32:15;10.07;;;8.50;;
58366;SDS011;57745;42.524;12.052;2023-06-04T00:34:40;13.07;;;9.23;;
58366;SDS011;57745;42.524;12.052;2023-06-04T00:37:06;14.40;;;9.18;;
58366;SDS011;57745;42.524;12.052;2023-06-04T00:39:32;9.82;;;8.18;;
58366;SDS011;57745;42.524;12.052;2023-06-04T00:41:57;10.80;;;8.45;;
58366;SDS011;57745;42.524;12.052;2023-06-04T00:44:23;11.43;;;8.88;;
58366;SDS011;57745;42.524;12.052;2023-06-04T00:46:50;12.00;;;8.85;;
58366;SDS011;57745;42.524;12.052;2023-06-04T00:49:16;13.20;;;9.90;;
58366;SDS011;57745;42.524;12.052;2023-06-04T00:51:41;12.00;;;8.80;;
58366;SDS011;57745;42.524;12.052;2023-06-04T00:54:07;11.98;;;9.27;;
58366;SDS011;57745;42.524;12.052;2023-06-04T00:56:37;10.10;;;8.65;;
58366;SDS011;57745;42.524;12.052;2023-06-04T00:59:06;12.57;;;9.13;;
58366;SDS011;57745;42.524;12.052;2023-06-04T01:04:26;9.98;;;8.02;;
58366;SDS011;57745;42.524;12.052;2023-06-04T01:06:57;9.52;;;8.57;;
58366;SDS011;57745;42.524;12.052;2023-06-04T01:09:27;8.68;;;7.72;;
58366;SDS011;57745;42.524;12.052;2023-06-04T01:11:54;11.27;;;8.40;;
58366;SDS011;57745;42.524;12.052;2023-06-04T01:14:22;11.80;;;9.02;;
58366;SDS011;57745;42.524;12.052;2023-06-04T01:16:56;11.32;;;9.45;;
58366;SDS011;57745;42.524;12.052;2023-06-04T01:20:01;10.63;;;8.57;;
58366;SDS011;57745;42.524;12.052;2023-06-04T01:22:32;10.40;;;8.30;;
58366;SDS011;57745;42.524;12.052;2023-06-04T01:25:05;11.10;;;8.82;;
58366;SDS011;57745;42.524;12.052;2023-06-04T01:27:49;9.68;;;8.02;;
58366;SDS011;57745;42.524;12.052;2023-06-04T01:30:18;11.43;;;8.68;;
58366;SDS011;57745;42.524;12.052;2023-06-04T01:32:48;9.82;;;8.68;;
58366;SDS011;57745;42.524;12.052;2023-06-04T01:35:14;12.93;;;9.43;;
58366;SDS011;57745;42.524;12.052;2023-06-04T01:37:39;10.68;;;8.90;;
58366;SDS011;57745;42.524;12.052;2023-06-04T01:40:05;12.60;;;8.95;;
58366;SDS011;57745;42.524;12.052;2023-06-04T01:42:33;12.77;;;9.23;;
58366;SDS011;57745;42.524;12.052;2023-06-04T01:45:00;11.60;;;9.07;;
58366;SDS011;57745;42.524;12.052;2023-06-04T01:47:25;11.85;;;9.68;;
58366;SDS011;57745;42.524;12.052;2023-06-04T01:49:51;11.52;;;9.63;;
58366;SDS011;57745;42.524;12.052;2023-06-04T01:52:16;12.57;;;9.65;;
58366;SDS011;57745;42.524;12.052;2023-06-04T01:54:41;11.63;;;9.43;;
58366;SDS011;57745;42.524;12.052;2023-06-04T01:57:07;12.02;;;8.98;;
58366;SDS011;57745;42.524;12.052;2023-06-04T01:59:35;12.70;;;9.25;;
58366;SDS011;57745;42.524;12.052;2023-06-04T02:02:01;11.63;;;9.02;;
58366;SDS011;57745;42.524;12.052;2023-06-04T02:04:27;11.98;;;9.52;;
58366;SDS011;57745;42.524;12.052;2023-06-04T02:06:53;11.77;;;8.85;;
58366;SDS011;57745;42.524;12.052;2023-06-04T02:09:18;10.52;;;7.95;;
58366;SDS011;57745;42.524;12.052;2023-06-04T02:11:44;11.93;;;8.73;;
58366;SDS011;57745;42.524;12.052;2023-06-04T02:14:09;10.10;;;8.60;;
58366;SDS011;57745;42.524;12.052;2023-06-04T02:16:35;10.10;;;7.80;;
58366;SDS011;57745;42.524;12.052;2023-06-04T02:19:00;8.93;;;7.05;;
58366;SDS011;57745;42.524;12.052;2023-06-04T02:21:26;8.18;;;6.80;;
58366;SDS011;57745;42.524;12.052;2023-06-04T02:23:51;8.55;;;6.57;;
58366;SDS011;57745;42.524;12.052;2023-06-04T02:26:16;8.38;;;6.68;;
58366;SDS011;57745;42.524;12.052;2023-06-04T02:28:42;8.70;;;6.85;;
58366;SDS011;57745;42.524;12.052;2023-06-04T02:31:07;9.05;;;6.65;;
58366;SDS011;57745;42.524;12.052;2023-06-04T02:33:33;8.98;;;6.07;;
58366;SDS011;57745;42.524;12.052;2023-06-04T02:35:58;9.70;;;7.03;;
58366;SDS011;57745;42.524;12.052;2023-06-04T02:38:25;9.30;;;6.53;;
58366;SDS011;57745;42.524;12.052;2023-06-04T02:40:50;10.07;;;7.00;;
58366;SDS011;57745;42.524;12.052;2023-06-04T02:43:16;9.18;;;7.00;;
58366;SDS011;57745;42.524;12.052;2023-06-04T02:45:41;8.55;;;6.18;;
58366;SDS011;57745;42.524;12.052;2023-06-04T02:48:06;8.43;;;6.32;;
58366;SDS011;57745;42.524;12.052;2023-06-04T02:50:32;8.15;;;6.40;;
58366;SDS011;57745;42.524;12.052;2023-06-04T02:52:57;8.95;;;6.93;;
58366;SDS011;57745;42.524;12.052;2023-06-04T02:55:23;11.00;;;7.03;;
58366;SDS011;57745;42.524;12.052;2023-06-04T02:57:48;8.13;;;6.07;;
58366;SDS011;57745;42.524;12.052;2023-06-04T03:00:14;8.95;;;6.72;;
58366;SDS011;57745;42.524;12.052;2023-06-04T03:02:41;10.20;;;6.53;;
58366;SDS011;57745;42.524;12.052;2023-06-04T03:05:09;9.02;;;6.90;;
58366;SDS011;57745;42.524;12.052;2023-06-04T03:07:36;8.23;;;6.82;;
58366;SDS011;57745;42.524;12.052;2023-06-04T03:10:02;8.55;;;6.60;;
58366;SDS011;57745;42.524;12.052;2023-06-04T03:12:29;8.43;;;7.10;;
58366;SDS011;57745;42.524;12.052;2023-06-04T03:14:55;10.77;;;6.32;;
58366;SDS011;57745;42.524;12.052;2023-06-04T03:17:20;13.57;;;8.00;;
58366;SDS011;57745;42.524;12.052;2023-06-04T03:19:46;9.43;;;6.80;;
58366;SDS011;57745;42.524;12.052;2023-06-04T03:22:12;8.82;;;6.35;;
58366;SDS011;57745;42.524;12.052;2023-06-04T03:24:39;9.02;;;6.78;;
58366;SDS011;57745;42.524;12.052;2023-06-04T03:27:06;11.48;;;7.40;;
58366;SDS011;57745;42.524;12.052;2023-06-04T03:29:33;11.23;;;7.25;;
58366;SDS011;57745;42.524;12.052;2023-06-04T03:31:59;10.48;;;7.93;;
58366;SDS011;57745;42.524;12.052;2023-06-04T03:34:25;11.50;;;8.52;;
58366;SDS011;57745;42.524;12.052;2023-06-04T03:36:51;12.23;;;8.70;;
58366;SDS011;57745;42.524;12.052;2023-06-04T03:39:17;11.63;;;8.60;;
58366;SDS011;57745;42.524;12.052;2023-06-04T03:41:43;10.98;;;8.93;;
58366;SDS011;57745;42.524;12.052;2023-06-04T03:44:09;9.63;;;7.78;;
58366;SDS011;57745;42.524;12.052;2023-06-04T03:46:34;8.88;;;7.28;;
58366;SDS011;57745;42.524;12.052;2023-06-04T03:49:00;8.75;;;6.85;;
58366;SDS011;57745;42.524;12.052;2023-06-04T03:51:27;8.27;;;6.80;;
58366;SDS011;57745;42.524;12.052;2023-06-04T03:53:52;7.57;;;6.55;;
58366;SDS011;57745;42.524;12.052;2023-06-04T03:56:18;9.25;;;6.72;;
58366;SDS011;57745;42.524;12.052;2023-06-04T03:58:43;6.78;;;6.07;;
58366;SDS011;57745;42.524;12.052;2023-06-04T04:01:08;7.78;;;5.95;;
58366;SDS011;57745;42.524;12.052;2023-06-04T04:03:35;8.02;;;5.75;;
58366;SDS011;57745;42.524;12.052;2023-06-04T04:06:01;9.63;;;6.40;;
58366;SDS011;57745;42.524;12.052;2023-06-04T04:08:26;8.23;;;6.80;;
58366;SDS011;57745;42.524;12.052;2023-06-04T04:10:56;7.43;;;6.43;;
58366;SDS011;57745;42.524;12.052;2023-06-04T04:13:25;8.90;;;6.82;;
58366;SDS011;57745;42.524;12.052;2023-06-04T04:15:50;7.40;;;6.10;;
58366;SDS011;57745;42.524;12.052;2023-06-04T04:18:20;7.95;;;6.50;;
58366;SDS011;57745;42.524;12.052;2023-06-04T04:20:46;8.85;;;7.25;;
58366;SDS011;57745;42.524;12.052;2023-06-04T04:23:12;10.80;;;7.10;;
58366;SDS011;57745;42.524;12.052;2023-06-04T04:25:38;8.70;;;6.72;;
58366;SDS011;57745;42.524;12.052;2023-06-04T04:28:04;8.65;;;6.38;;
58366;SDS011;57745;42.524;12.052;2023-06-04T04:30:35;8.07;;;6.32;;
58366;SDS011;57745;42.524;12.052;2023-06-04T04:33:02;9.75;;;7.07;;
58366;SDS011;57745;42.524;12.052;2023-06-04T04:35:30;7.68;;;6.13;;
58366;SDS011;57745;42.524;12.052;2023-06-04T04:37:57;7.97;;;6.30;;
58366;SDS011;57745;42.524;12.052;2023-06-04T04:40:23;7.32;;;6.40;;
58366;SDS011;57745;42.524;12.052;2023-06-04T04:42:49;8.82;;;6.90;;
58366;SDS011;57745;42.524;12.052;2023-06-04T04:45:15;9.90;;;6.50;;
58366;SDS011;57745;42.524;12.052;2023-06-04T04:47:42;9.68;;;6.47;;
58366;SDS011;57745;42.524;12.052;2023-06-04T04:50:08;9.45;;;6.85;;
58366;SDS011;57745;42.524;12.052;2023-06-04T04:52:33;8.52;;;6.18;;
58366;SDS011;57745;42.524;12.052;2023-06-04T04:54:59;8.93;;;6.47;;
58366;SDS011;57745;42.524;12.052;2023-06-04T04:57:25;11.38;;;6.55;;
58366;SDS011;57745;42.524;12.052;2023-06-04T04:59:50;9.18;;;6.30;;
58366;SDS011;57745;42.524;12.052;2023-06-04T05:02:16;9.27;;;6.80;;
58366;SDS011;57745;42.524;12.052;2023-06-04T05:04:41;9.43;;;6.28;;
58366;SDS011;57745;42.524;12.052;2023-06-04T05:07:07;6.93;;;5.70;;
58366;SDS011;57745;42.524;12.052;2023-06-04T05:09:32;7.40;;;5.95;;
58366;SDS011;57745;42.524;12.052;2023-06-04T05:11:58;7.80;;;5.75;;
58366;SDS011;57745;42.524;12.052;2023-06-04T05:14:23;8.10;;;5.60;;
58366;SDS011;57745;42.524;12.052;2023-06-04T05:16:49;8.73;;;5.97;;
58366;SDS011;57745;42.524;12.052;2023-06-04T05:19:17;7.97;;;5.82;;
58366;SDS011;57745;42.524;12.052;2023-06-04T05:21:43;8.68;;;5.47;;
58366;SDS011;57745;42.524;12.052;2023-06-04T05:24:09;7.38;;;5.38;;
58366;SDS011;57745;42.524;12.052;2023-06-04T05:26:35;7.20;;;5.10;;
58366;SDS011;57745;42.524;12.052;2023-06-04T05:29:02;7.85;;;5.38;;
58366;SDS011;57745;42.524;12.052;2023-06-04T05:31:29;9.35;;;5.10;;
58366;SDS011;57745;42.524;12.052;2023-06-04T05:33:58;7.20;;;5.80;;
58366;SDS011;57745;42.524;12.052;2023-06-04T05:36:32;8.48;;;5.00;;
58366;SDS011;57745;42.524;12.052;2023-06-04T05:38:57;6.70;;;5.18;;
58366;SDS011;57745;42.524;12.052;2023-06-04T05:41:24;9.60;;;5.57;;
58366;SDS011;57745;42.524;12.052;2023-06-04T05:43:53;12.93;;;5.25;;
58366;SDS011;57745;42.524;12.052;2023-06-04T05:46:18;6.13;;;5.00;;
58366;SDS011;57745;42.524;12.052;2023-06-04T05:48:44;6.72;;;4.93;;
58366;SDS011;57745;42.524;12.052;2023-06-04T05:51:10;10.65;;;7.05;;
58366;SDS011;57745;42.524;12.052;2023-06-04T05:53:35;8.27;;;6.30;;
58366;SDS011;57745;42.524;12.052;2023-06-04T05:56:00;7.68;;;5.53;;
58366;SDS011;57745;42.524;12.052;2023-06-04T05:58:26;7.65;;;5.47;;
58366;SDS011;57745;42.524;12.052;2023-06-04T06:00:51;8.10;;;5.63;;
58366;SDS011;57745;42.524;12.052;2023-06-04T06:03:17;7.25;;;5.18;;
58366;SDS011;57745;42.524;12.052;2023-06-04T06:05:43;7.35;;;5.40;;
58366;SDS011;57745;42.524;12.052;2023-06-04T06:08:08;9.68;;;5.45;;
58366;SDS011;57745;42.524;12.052;2023-06-04T06:10:34;7.57;;;5.18;;
58366;SDS011;57745;42.524;12.052;2023-06-04T06:13:00;6.70;;;5.38;;
58366;SDS011;57745;42.524;12.052;2023-06-04T06:15:26;5.45;;;4.88;;
58366;SDS011;57745;42.524;12.052;2023-06-04T06:17:51;7.65;;;5.85;;
58366;SDS011;57745;42.524;12.052;2023-06-04T06:20:17;8.60;;;5.43;;
58366;SDS011;57745;42.524;12.052;2023-06-04T06:22:43;7.03;;;5.60;;
58366;SDS011;57745;42.524;12.052;2023-06-04T06:25:09;7.38;;;5.93;;
58366;SDS011;57745;42.524;12.052;2023-06-04T06:27:38;7.47;;;5.45;;
58366;SDS011;57745;42.524;12.052;2023-06-04T06:30:04;6.60;;;5.75;;
58366;SDS011;57745;42.524;12.052;2023-06-04T06:32:31;8.25;;;5.72;;
58366;SDS011;57745;42.524;12.052;2023-06-04T06:34:56;7.05;;;5.20;;
58366;SDS011;57745;42.524;12.052;2023-06-04T06:37:22;6.80;;;5.38;;
58366;SDS011;57745;42.524;12.052;2023-06-04T06:39:47;7.15;;;5.70;;
58366;SDS011;57745;42.524;12.052;2023-06-04T06:42:13;8.50;;;4.95;;
58366;SDS011;57745;42.524;12.052;2023-06-04T06:44:38;7.13;;;4.75;;
58366;SDS011;57745;42.524;12.052;2023-06-04T06:47:04;6.55;;;5.25;;
58366;SDS011;57745;42.524;12.052;2023-06-04T06:49:29;7.60;;;5.15;;
58366;SDS011;57745;42.524;12.052;2023-06-04T06:51:55;11.98;;;5.13;;
58366;SDS011;57745;42.524;12.052;2023-06-04T06:54:20;7.68;;;5.00;;
58366;SDS011;57745;42.524;12.052;2023-06-04T06:56:47;5.97;;;4.75;;
58366;SDS011;57745;42.524;12.052;2023-06-04T06:59:14;6.03;;;4.78;;
58366;SDS011;57745;42.524;12.052;2023-06-04T07:01:40;6.90;;;4.90;;
58366;SDS011;57745;42.524;12.052;2023-06-04T07:04:05;6.35;;;5.00;;
58366;SDS011;57745;42.524;12.052;2023-06-04T07:06:31;7.15;;;5.28;;
58366;SDS011;57745;42.524;12.052;2023-06-04T07:08:58;4.90;;;4.25;;
58366;SDS011;57745;42.524;12.052;2023-06-04T07:11:23;6.32;;;4.85;;
58366;SDS011;57745;42.524;12.052;2023-06-04T07:13:50;6.70;;;4.90;;
58366;SDS011;57745;42.524;12.052;2023-06-04T07:16:16;7.03;;;5.00;;
58366;SDS011;57745;42.524;12.052;2023-06-04T07:18:42;7.43;;;4.75;;
58366;SDS011;57745;42.524;12.052;2023-06-04T07:21:08;6.70;;;4.93;;
58366;SDS011;57745;42.524;12.052;2023-06-04T07:23:33;6.45;;;4.60;;
58366;SDS011;57745;42.524;12.052;2023-06-04T07:25:59;5.70;;;4.68;;
58366;SDS011;57745;42.524;12.052;2023-06-04T07:28:24;7.88;;;5.28;;
58366;SDS011;57745;42.524;12.052;2023-06-04T07:30:50;9.27;;;5.32;;
58366;SDS011;57745;42.524;12.052;2023-06-04T07:33:15;7.82;;;5.32;;
58366;SDS011;57745;42.524;12.052;2023-06-04T07:35:41;8.73;;;5.32;;
58366;SDS011;57745;42.524;12.052;2023-06-04T07:38:06;6.70;;;4.82;;
58366;SDS011;57745;42.524;12.052;2023-06-04T07:40:32;5.70;;;5.05;;
58366;SDS011;57745;42.524;12.052;2023-06-04T07:42:58;6.93;;;5.10;;
58366;SDS011;57745;42.524;12.052;2023-06-04T07:45:23;7.32;;;5.05;;
58366;SDS011;57745;42.524;12.052;2023-06-04T07:47:49;6.55;;;5.03;;
58366;SDS011;57745;42.524;12.052;2023-06-04T07:50:14;6.38;;;4.97;;
58366;SDS011;57745;42.524;12.052;2023-06-04T07:52:40;7.32;;;6.18;;
58366;SDS011;57745;42.524;12.052;2023-06-04T07:55:05;7.15;;;5.20;;
58366;SDS011;57745;42.524;12.052;2023-06-04T07:57:33;6.55;;;5.15;;
58366;SDS011;57745;42.524;12.052;2023-06-04T07:59:59;5.30;;;4.80;;
58366;SDS011;57745;42.524;12.052;2023-06-04T08:02:24;7.35;;;5.30;;
58366;SDS011;57745;42.524;12.052;2023-06-04T08:04:51;6.82;;;5.10;;
58366;SDS011;57745;42.524;12.052;2023-06-04T08:07:16;7.05;;;5.60;;
58366;SDS011;57745;42.524;12.052;2023-06-04T08:09:42;6.82;;;4.97;;
58366;SDS011;57745;42.524;12.052;2023-06-04T08:12:09;5.97;;;5.05;;
58366;SDS011;57745;42.524;12.052;2023-06-04T08:14:35;6.28;;;5.55;;
58366;SDS011;57745;42.524;12.052;2023-06-04T08:17:00;8.07;;;5.63;;
58366;SDS011;57745;42.524;12.052;2023-06-04T08:19:26;6.80;;;5.65;;
58366;SDS011;57745;42.524;12.052;2023-06-04T08:21:51;6.78;;;5.40;;
58366;SDS011;57745;42.524;12.052;2023-06-04T08:24:17;8.48;;;5.57;;
58366;SDS011;57745;42.524;12.052;2023-06-04T08:26:42;7.05;;;5.32;;
58366;SDS011;57745;42.524;12.052;2023-06-04T08:29:08;7.63;;;5.43;;
58366;SDS011;57745;42.524;12.052;2023-06-04T08:31:33;7.43;;;5.38;;
58366;SDS011;57745;42.524;12.052;2023-06-04T08:33:59;5.93;;;5.15;;
58366;SDS011;57745;42.524;12.052;2023-06-04T08:36:24;6.97;;;5.40;;
58366;SDS011;57745;42.524;12.052;2023-06-04T08:38:50;7.45;;;5.20;;
58366;SDS011;57745;42.524;12.052;2023-06-04T08:44:04;8.30;;;6.10;;
58366;SDS011;57745;42.524;12.052;2023-06-04T08:46:31;7.55;;;5.47;;
58366;SDS011;57745;42.524;12.052;2023-06-04T08:48:59;6.88;;;5.57;;
58366;SDS011;57745;42.524;12.052;2023-06-04T08:51:29;7.03;;;5.40;;
58366;SDS011;57745;42.524;12.052;2023-06-04T08:53:58;8.05;;;5.25;;
58366;SDS011;57745;42.524;12.052;2023-06-04T08:56:24;10.07;;;5.40;;
58366;SDS011;57745;42.524;12.052;2023-06-04T08:58:51;6.60;;;5.63;;
58366;SDS011;57745;42.524;12.052;2023-06-04T09:01:17;9.00;;;5.45;;
58366;SDS011;57745;42.524;12.052;2023-06-04T09:03:42;9.40;;;5.35;;
58366;SDS011;57745;42.524;12.052;2023-06-04T09:06:08;8.35;;;5.38;;
58366;SDS011;57745;42.524;12.052;2023-06-04T09:08:34;7.63;;;5.43;;
58366;SDS011;57745;42.524;12.052;2023-06-04T09:11:05;6.35;;;4.90;;
58366;SDS011;57745;42.524;12.052;2023-06-04T09:13:35;6.43;;;5.35;;
58366;SDS011;57745;42.524;12.052;2023-06-04T09:16:01;7.53;;;5.35;;
58366;SDS011;57745;42.524;12.052;2023-06-04T09:18:28;6.28;;;5.60;;
58366;SDS011;57745;42.524;12.052;2023-06-04T09:21:03;6.90;;;5.20;;
58366;SDS011;57745;42.524;12.052;2023-06-04T09:23:45;6.60;;;5.43;;
58366;SDS011;57745;42.524;12.052;2023-06-04T09:26:12;7.22;;;5.68;;
58366;SDS011;57745;42.524;12.052;2023-06-04T09:28:41;6.05;;;4.53;;
58366;SDS011;57745;42.524;12.052;2023-06-04T09:31:13;6.47;;;5.00;;
58366;SDS011;57745;42.524;12.052;2023-06-04T09:33:47;6.72;;;6.03;;
58366;SDS011;57745;42.524;12.052;2023-06-04T09:36:15;7.18;;;5.22;;
58366;SDS011;57745;42.524;12.052;2023-06-04T09:38:41;6.15;;;5.40;;
58366;SDS011;57745;42.524;12.052;2023-06-04T09:41:17;8.20;;;5.15;;
58366;SDS011;57745;42.524;12.052;2023-06-04T09:43:46;7.05;;;4.63;;
58366;SDS011;57745;42.524;12.052;2023-06-04T09:46:12;8.45;;;4.43;;
58366;SDS011;57745;42.524;12.052;2023-06-04T09:48:39;5.50;;;4.75;;
58366;SDS011;57745;42.524;12.052;2023-06-04T09:51:08;7.03;;;4.30;;
58366;SDS011;57745;42.524;12.052;2023-06-04T09:53:37;5.55;;;4.45;;
58366;SDS011;57745;42.524;12.052;2023-06-04T09:56:03;6.32;;;5.00;;
58366;SDS011;57745;42.524;12.052;2023-06-04T09:58:34;6.95;;;4.60;;
58366;SDS011;57745;42.524;12.052;2023-06-04T10:01:02;5.22;;;4.18;;
58366;SDS011;57745;42.524;12.052;2023-06-04T10:03:36;11.82;;;8.13;;
58366;SDS011;57745;42.524;12.052;2023-06-04T10:06:03;7.50;;;5.43;;
58366;SDS011;57745;42.524;12.052;2023-06-04T10:08:29;6.78;;;5.07;;
58366;SDS011;57745;42.524;12.052;2023-06-04T10:10:58;7.95;;;5.53;;
58366;SDS011;57745;42.524;12.052;2023-06-04T10:13:29;6.95;;;5.38;;
58366;SDS011;57745;42.524;12.052;2023-06-04T10:15:56;6.13;;;5.05;;
58366;SDS011;57745;42.524;12.052;2023-06-04T10:18:28;6.13;;;4.38;;
58366;SDS011;57745;42.524;12.052;2023-06-04T10:20:56;6.45;;;4.65;;
58366;SDS011;57745;42.524;12.052;2023-06-04T10:23:23;5.68;;;4.75;;
58366;SDS011;57745;42.524;12.052;2023-06-04T10:25:49;6.10;;;4.53;;
58366;SDS011;57745;42.524;12.052;2023-06-04T10:28:18;6.38;;;4.28;;
58366;SDS011;57745;42.524;12.052;2023-06-04T10:30:45;5.32;;;4.43;;
58366;SDS011;57745;42.524;12.052;2023-06-04T10:33:10;9.45;;;4.68;;
58366;SDS011;57745;42.524;12.052;2023-06-04T10:35:36;7.25;;;4.80;;
58366;SDS011;57745;42.524;12.052;2023-06-04T10:38:09;6.45;;;4.32;;
58366;SDS011;57745;42.524;12.052;2023-06-04T10:40:37;7.40;;;5.07;;
58366;SDS011;57745;42.524;12.052;2023-06-04T10:43:09;7.38;;;5.10;;
58366;SDS011;57745;42.524;12.052;2023-06-04T10:45:41;10.20;;;5.20;;
58366;SDS011;57745;42.524;12.052;2023-06-04T10:48:08;7.68;;;4.80;;
58366;SDS011;57745;42.524;12.052;2023-06-04T10:50:35;7.45;;;5.47;;
58366;SDS011;57745;42.524;12.052;2023-06-04T10:53:13;8.70;;;5.32;;
58366;SDS011;57745;42.524;12.052;2023-06-04T10:55:45;6.28;;;5.03;;
58366;SDS011;57745;42.524;12.052;2023-06-04T10:58:12;7.10;;;4.95;;
58366;SDS011;57745;42.524;12.052;2023-06-04T11:00:38;5.28;;;4.78;;
58366;SDS011;57745;42.524;12.052;2023-06-04T11:03:06;8.13;;;4.50;;
58366;SDS011;57745;42.524;12.052;2023-06-04T11:05:33;6.85;;;5.40;;
58366;SDS011;57745;42.524;12.052;2023-06-04T11:08:00;6.53;;;4.78;;
58366;SDS011;57745;42.524;12.052;2023-06-04T11:10:36;7.03;;;4.63;;
58366;SDS011;57745;42.524;12.052;2023-06-04T11:13:03;5.13;;;4.63;;
58366;SDS011;57745;42.524;12.052;2023-06-04T11:15:45;5.65;;;4.80;;
58366;SDS011;57745;42.524;12.052;2023-06-04T11:18:22;6.50;;;4.60;;
58366;SDS011;57745;42.524;12.052;2023-06-04T11:20:49;6.85;;;5.18;;
58366;SDS011;57745;42.524;12.052;2023-06-04T11:23:23;6.38;;;4.57;;
58366;SDS011;57745;42.524;12.052;2023-06-04T11:25:48;6.53;;;5.00;;
58366;SDS011;57745;42.524;12.052;2023-06-04T11:28:17;8.38;;;5.18;;
58366;SDS011;57745;42.524;12.052;2023-06-04T11:30:43;5.47;;;4.88;;
58366;SDS011;57745;42.524;12.052;2023-06-04T11:33:09;6.70;;;4.78;;
58366;SDS011;57745;42.524;12.052;2023-06-04T11:35:41;7.05;;;4.88;;
58366;SDS011;57745;42.524;12.052;2023-06-04T11:38:09;7.65;;;4.53;;
58366;SDS011;57745;42.524;12.052;2023-06-04T11:40:35;5.30;;;4.47;;
58366;SDS011;57745;42.524;12.052;2023-06-04T11:43:01;7.05;;;4.40;;
58366;SDS011;57745;42.524;12.052;2023-06-04T11:45:27;6.53;;;4.35;;
58366;SDS011;57745;42.524;12.052;2023-06-04T11:47:55;5.90;;;4.20;;
58366;SDS011;57745;42.524;12.052;2023-06-04T11:50:22;8.23;;;5.20;;
58366;SDS011;57745;42.524;12.052;2023-06-04T11:52:49;7.03;;;5.10;;
58366;SDS011;57745;42.524;12.052;2023-06-04T11:55:14;9.23;;;6.22;;
58366;SDS011;57745;42.524;12.052;2023-06-04T11:57:45;10.15;;;7.05;;
58366;SDS011;57745;42.524;12.052;2023-06-04T12:00:12;9.40;;;7.15;;
58366;SDS011;57745;42.524;12.052;2023-06-04T12:02:38;7.30;;;6.28;;
58366;SDS011;57745;42.524;12.052;2023-06-04T12:05:16;8.45;;;6.22;;
58366;SDS011;57745;42.524;12.052;2023-06-04T12:07:45;6.47;;;5.65;;
58366;SDS011;57745;42.524;12.052;2023-06-04T12:10:12;8.88;;;5.97;;
58366;SDS011;57745;42.524;12.052;2023-06-04T12:12:38;9.75;;;6.70;;
58366;SDS011;57745;42.524;12.052;2023-06-04T12:15:05;7.00;;;6.20;;
58366;SDS011;57745;42.524;12.052;2023-06-04T12:17:32;9.30;;;6.32;;
58366;SDS011;57745;42.524;12.052;2023-06-04T12:19:58;17.15;;;12.63;;
58366;SDS011;57745;42.524;12.052;2023-06-04T12:22:24;14.18;;;10.68;;
58366;SDS011;57745;42.524;12.052;2023-06-04T12:24:51;21.02;;;14.70;;
58366;SDS011;57745;42.524;12.052;2023-06-04T12:27:19;22.77;;;14.05;;
58366;SDS011;57745;42.524;12.052;2023-06-04T12:29:59;32.20;;;19.58;;
58366;SDS011;57745;42.524;12.052;2023-06-04T12:32:30;23.55;;;14.60;;
58366;SDS011;57745;42.524;12.052;2023-06-04T12:34:59;18.15;;;12.57;;
58366;SDS011;57745;42.524;12.052;2023-06-04T12:37:24;14.88;;;10.60;;
58366;SDS011;57745;42.524;12.052;2023-06-04T12:39:50;15.38;;;10.23;;
58366;SDS011;57745;42.524;12.052;2023-06-04T12:42:17;14.05;;;10.40;;
58366;SDS011;57745;42.524;12.052;2023-06-04T12:44:44;11.50;;;9.50;;
58366;SDS011;57745;42.524;12.052;2023-06-04T12:47:09;13.45;;;9.60;;
58366;SDS011;57745;42.524;12.052;2023-06-04T12:49:35;10.60;;;8.13;;
58366;SDS011;57745;42.524;12.052;2023-06-04T12:52:01;10.38;;;9.05;;
58366;SDS011;57745;42.524;12.052;2023-06-04T12:54:27;9.82;;;7.95;;
58366;SDS011;57745;42.524;12.052;2023-06-04T12:56:53;10.43;;;8.02;;
58366;SDS011;57745;42.524;12.052;2023-06-04T12:59:21;8.75;;;7.85;;
58366;SDS011;57745;42.524;12.052;2023-06-04T13:01:47;11.00;;;8.23;;
58366;SDS011;57745;42.524;12.052;2023-06-04T13:04:13;8.68;;;7.57;;
58366;SDS011;57745;42.524;12.052;2023-06-04T13:06:38;10.13;;;8.00;;
58366;SDS011;57745;42.524;12.052;2023-06-04T13:09:04;9.20;;;7.57;;
58366;SDS011;57745;42.524;12.052;2023-06-04T13:11:43;10.00;;;8.65;;
58366;SDS011;57745;42.524;12.052;2023-06-04T13:14:09;9.70;;;7.47;;
58366;SDS011;57745;42.524;12.052;2023-06-04T13:16:35;9.88;;;8.52;;
58366;SDS011;57745;42.524;12.052;2023-06-04T13:19:01;9.60;;;7.47;;
58366;SDS011;57745;42.524;12.052;2023-06-04T13:21:27;11.93;;;8.38;;
58366;SDS011;57745;42.524;12.052;2023-06-04T13:23:53;8.98;;;7.75;;
58366;SDS011;57745;42.524;12.052;2023-06-04T13:26:19;9.82;;;7.63;;
58366;SDS011;57745;42.524;12.052;2023-06-04T13:28:46;9.05;;;7.80;;
58366;SDS011;57745;42.524;12.052;2023-06-04T13:31:12;8.55;;;7.40;;
58366;SDS011;57745;42.524;12.052;2023-06-04T13:33:43;8.73;;;7.40;;
58366;SDS011;57745;42.524;12.052;2023-06-04T13:36:09;9.40;;;7.80;;
58366;SDS011;57745;42.524;12.052;2023-06-04T13:38:34;10.32;;;7.57;;
58366;SDS011;57745;42.524;12.052;2023-06-04T13:41:00;10.80;;;8.00;;
58366;SDS011;57745;42.524;12.052;2023-06-04T13:43:26;11.13;;;7.43;;
58366;SDS011;57745;42.524;12.052;2023-06-04T13:45:51;11.50;;;8.43;;
58366;SDS011;57745;42.524;12.052;2023-06-04T13:48:17;8.20;;;7.25;;
58366;SDS011;57745;42.524;12.052;2023-06-04T13:50:43;9.23;;;7.78;;
58366;SDS011;57745;42.524;12.052;2023-06-04T13:53:08;11.02;;;8.10;;
58366;SDS011;57745;42.524;12.052;2023-06-04T13:55:34;8.10;;;6.90;;
58366;SDS011;57745;42.524;12.052;2023-06-04T13:57:59;9.48;;;7.78;;
58366;SDS011;57745;42.524;12.052;2023-06-04T14:00:25;8.80;;;7.85;;
58366;SDS011;57745;42.524;12.052;2023-06-04T14:02:50;9.02;;;6.88;;
58366;SDS011;57745;42.524;12.052;2023-06-04T14:05:17;9.38;;;7.72;;
58366;SDS011;57745;42.524;12.052;2023-06-04T14:07:42;8.50;;;7.25;;
58366;SDS011;57745;42.524;12.052;2023-06-04T14:10:08;8.95;;;7.40;;
58366;SDS011;57745;42.524;12.052;2023-06-04T14:12:35;9.18;;;7.82;;
58366;SDS011;57745;42.524;12.052;2023-06-04T14:15:03;11.60;;;8.57;;
58366;SDS011;57745;42.524;12.052;2023-06-04T14:17:29;10.57;;;8.40;;
58366;SDS011;57745;42.524;12.052;2023-06-04T14:19:54;11.50;;;8.82;;
58366;SDS011;57745;42.524;12.052;2023-06-04T14:22:20;10.43;;;9.32;;
58366;SDS011;57745;42.524;12.052;2023-06-04T14:24:45;11.48;;;9.23;;
58366;SDS011;57745;42.524;12.052;2023-06-04T14:27:11;10.82;;;9.05;;
58366;SDS011;57745;42.524;12.052;2023-06-04T14:29:36;14.00;;;9.23;;
58366;SDS011;57745;42.524;12.052;2023-06-04T14:32:02;12.90;;;10.18;;
58366;SDS011;57745;42.524;12.052;2023-06-04T14:34:29;10.13;;;8.57;;